sensor_id;sensor_type;location;lat;lon;timestamp;pressure;altitude;pressure_sealevel;temperature;humidity
14383;BME280;7275;50.328;8.720;2023-03-14T00:01:19;97798.44;;;15.74;54.41
14383;BME280;7275;50.328;8.720;2023-03-14T00:03:49;97776.00;;;15.76;54.37
14383;BME280;7275;50.328;8.720;2023-03-14T00:06:17;97765.19;;;15.78;54.26
14383;BME280;7275;50.328;8.720;2023-03-14T00:08:45;97768.56;;;15.80;54.31
14383;BME280;7275;50.328;8.720;2023-03-14T00:11:15;97765.91;;;15.80;54.42
14383;BME280;7275;50.328;8.720;2023-03-14T00:13:43;97762.13;;;15.82;54.25
14383;BME280;7275;50.328;8.720;2023-03-14T00:16:12;97772.66;;;15.84;54.38
14383;BME280;7275;50.328;8.720;2023-03-14T00:18:40;97787.66;;;15.85;54.43
14383;BME280;7275;50.328;8.720;2023-03-14T00:21:10;97793.81;;;15.85;54.43
14383;BME280;7275;50.328;8.720;2023-03-14T00:23:40;97798.03;;;15.88;54.39
14383;BME280;7275;50.328;8.720;2023-03-14T00:26:09;97795.38;;;15.88;54.35
14383;BME280;7275;50.328;8.720;2023-03-14T00:28:38;97793.56;;;15.88;54.38
14383;BME280;7275;50.328;8.720;2023-03-14T00:31:07;97782.03;;;15.88;54.53
14383;BME280;7275;50.328;8.720;2023-03-14T00:33:36;97800.59;;;15.89;54.39
14383;BME280;7275;50.328;8.720;2023-03-14T00:36:05;97793.41;;;15.90;54.45
14383;BME280;7275;50.328;8.720;2023-03-14T00:38:37;97804.91;;;15.90;54.22
14383;BME280;7275;50.328;8.720;2023-03-14T00:41:07;97798.75;;;15.90;54.24
14383;BME280;7275;50.328;8.720;2023-03-14T00:43:35;97788.22;;;15.88;54.53
14383;BME280;7275;50.328;8.720;2023-03-14T00:46:03;97790.75;;;15.90;54.40
14383;BME280;7275;50.328;8.720;2023-03-14T00:48:31;97772.09;;;15.90;54.28
14383;BME280;7275;50.328;8.720;2023-03-14T00:50:59;97778.13;;;15.92;54.47
14383;BME280;7275;50.328;8.720;2023-03-14T00:53:26;97770.13;;;15.92;54.47
14383;BME280;7275;50.328;8.720;2023-03-14T00:55:55;97756.09;;;15.90;54.53
14383;BME280;7275;50.328;8.720;2023-03-14T00:58:23;97747.28;;;15.89;54.50
14383;BME280;7275;50.328;8.720;2023-03-14T01:00:50;97714.59;;;15.87;54.40
14383;BME280;7275;50.328;8.720;2023-03-14T01:03:18;97691.75;;;15.85;54.50
14383;BME280;7275;50.328;8.720;2023-03-14T01:05:45;97700.00;;;15.82;54.32
14383;BME280;7275;50.328;8.720;2023-03-14T01:08:13;97695.94;;;15.78;54.24
14383;BME280;7275;50.328;8.720;2023-03-14T01:10:41;97699.16;;;15.72;54.37
14383;BME280;7275;50.328;8.720;2023-03-14T01:13:09;97717.38;;;15.67;54.38
14383;BME280;7275;50.328;8.720;2023-03-14T01:15:37;97723.25;;;15.61;54.45
14383;BME280;7275;50.328;8.720;2023-03-14T01:18:05;97723.53;;;15.58;54.40
14383;BME280;7275;50.328;8.720;2023-03-14T01:20:32;97734.72;;;15.52;54.70
14383;BME280;7275;50.328;8.720;2023-03-14T01:23:00;97739.47;;;15.48;54.73
14383;BME280;7275;50.328;8.720;2023-03-14T01:25:27;97749.28;;;15.48;54.85
14383;BME280;7275;50.328;8.720;2023-03-14T01:27:56;97751.25;;;15.46;54.86
14383;BME280;7275;50.328;8.720;2023-03-14T01:30:25;97751.25;;;15.46;55.02
14383;BME280;7275;50.328;8.720;2023-03-14T01:32:52;97742.41;;;15.45;54.97
14383;BME280;7275;50.328;8.720;2023-03-14T01:35:20;97734.28;;;15.47;55.10
14383;BME280;7275;50.328;8.720;2023-03-14T01:37:47;97728.00;;;15.48;55.09
14383;BME280;7275;50.328;8.720;2023-03-14T01:40:15;97725.19;;;15.49;54.88
14383;BME280;7275;50.328;8.720;2023-03-14T01:42:46;97724.09;;;15.52;55.05
14383;BME280;7275;50.328;8.720;2023-03-14T01:48:39;97720.72;;;15.50;55.01
14383;BME280;7275;50.328;8.720;2023-03-14T01:51:09;97724.78;;;15.54;55.05
14383;BME280;7275;50.328;8.720;2023-03-14T01:53:39;97716.66;;;15.55;55.05
14383;BME280;7275;50.328;8.720;2023-03-14T01:56:11;97702.22;;;15.58;55.03
14383;BME280;7275;50.328;8.720;2023-03-14T01:58:41;97688.75;;;15.59;54.79
14383;BME280;7275;50.328;8.720;2023-03-14T02:01:14;97685.84;;;15.62;54.92
14383;BME280;7275;50.328;8.720;2023-03-14T02:03:47;97677.56;;;15.65;54.76
14383;BME280;7275;50.328;8.720;2023-03-14T02:06:19;97679.25;;;15.66;54.66
14383;BME280;7275;50.328;8.720;2023-03-14T02:08:48;97681.63;;;15.69;54.60
14383;BME280;7275;50.328;8.720;2023-03-14T02:11:17;97677.16;;;15.70;54.72
14383;BME280;7275;50.328;8.720;2023-03-14T02:13:45;97673.47;;;15.71;54.73
14383;BME280;7275;50.328;8.720;2023-03-14T02:16:13;97669.84;;;15.72;54.88
14383;BME280;7275;50.328;8.720;2023-03-14T02:18:40;97667.03;;;15.73;54.45
14383;BME280;7275;50.328;8.720;2023-03-14T02:21:13;97666.63;;;15.78;54.50
14383;BME280;7275;50.328;8.720;2023-03-14T02:23:49;97665.38;;;15.82;54.48
14383;BME280;7275;50.328;8.720;2023-03-14T02:26:22;97663.97;;;15.87;54.38
14383;BME280;7275;50.328;8.720;2023-03-14T02:28:53;97658.22;;;15.92;54.27
14383;BME280;7275;50.328;8.720;2023-03-14T02:31:21;97658.66;;;15.97;54.30
14383;BME280;7275;50.328;8.720;2023-03-14T02:33:50;97646.88;;;15.99;54.18
14383;BME280;7275;50.328;8.720;2023-03-14T02:36:19;97635.06;;;16.02;54.17
14383;BME280;7275;50.328;8.720;2023-03-14T02:38:53;97640.28;;;16.04;54.00
14383;BME280;7275;50.328;8.720;2023-03-14T02:41:23;97636.63;;;16.05;53.97
14383;BME280;7275;50.328;8.720;2023-03-14T02:43:50;97623.28;;;16.05;53.84
14383;BME280;7275;50.328;8.720;2023-03-14T02:46:20;97624.13;;;16.05;54.07
14383;BME280;7275;50.328;8.720;2023-03-14T02:48:51;97621.63;;;16.04;53.97
14383;BME280;7275;50.328;8.720;2023-03-14T02:51:20;97620.63;;;16.05;54.00
14383;BME280;7275;50.328;8.720;2023-03-14T02:53:48;97631.97;;;16.07;53.93
14383;BME280;7275;50.328;8.720;2023-03-14T02:56:15;97645.03;;;16.10;53.77
14383;BME280;7275;50.328;8.720;2023-03-14T02:58:43;97644.03;;;16.11;53.77
14383;BME280;7275;50.328;8.720;2023-03-14T03:01:10;97630.59;;;16.12;53.76
14383;BME280;7275;50.328;8.720;2023-03-14T03:03:39;97639.56;;;16.11;53.88
14383;BME280;7275;50.328;8.720;2023-03-14T03:06:07;97638.88;;;16.09;53.68
14383;BME280;7275;50.328;8.720;2023-03-14T03:08:35;97620.50;;;16.06;53.73
14383;BME280;7275;50.328;8.720;2023-03-14T03:11:02;97614.91;;;15.99;53.73
14383;BME280;7275;50.328;8.720;2023-03-14T03:13:30;97629.50;;;15.95;53.76
14383;BME280;7275;50.328;8.720;2023-03-14T03:15:57;97621.91;;;15.91;54.01
14383;BME280;7275;50.328;8.720;2023-03-14T03:18:25;97624.00;;;15.87;53.77
14383;BME280;7275;50.328;8.720;2023-03-14T03:20:54;97623.28;;;15.85;53.93
14383;BME280;7275;50.328;8.720;2023-03-14T03:23:21;97636.91;;;15.82;53.94
14383;BME280;7275;50.328;8.720;2023-03-14T03:25:50;97633.56;;;15.80;54.02
14383;BME280;7275;50.328;8.720;2023-03-14T03:28:17;97630.03;;;15.80;53.94
14383;BME280;7275;50.328;8.720;2023-03-14T03:30:45;97615.06;;;15.79;53.95
14383;BME280;7275;50.328;8.720;2023-03-14T03:33:13;97624.72;;;15.80;54.13
14383;BME280;7275;50.328;8.720;2023-03-14T03:35:42;97614.91;;;15.80;54.00
14383;BME280;7275;50.328;8.720;2023-03-14T03:38:12;97610.44;;;15.81;54.10
14383;BME280;7275;50.328;8.720;2023-03-14T03:40:39;97612.09;;;15.82;53.79
14383;BME280;7275;50.328;8.720;2023-03-14T03:43:07;97601.28;;;15.83;53.96
14383;BME280;7275;50.328;8.720;2023-03-14T03:45:35;97595.13;;;15.83;53.91
14383;BME280;7275;50.328;8.720;2023-03-14T03:48:03;97598.63;;;15.83;53.82
14383;BME280;7275;50.328;8.720;2023-03-14T03:50:31;97592.47;;;15.83;53.83
14383;BME280;7275;50.328;8.720;2023-03-14T03:52:59;97585.31;;;15.83;53.73
14383;BME280;7275;50.328;8.720;2023-03-14T03:55:27;97587.25;;;15.81;53.66
14383;BME280;7275;50.328;8.720;2023-03-14T03:57:55;97591.09;;;15.79;53.74
14383;BME280;7275;50.328;8.720;2023-03-14T04:00:23;97581.09;;;15.71;53.85
14383;BME280;7275;50.328;8.720;2023-03-14T04:02:50;97568.50;;;15.64;54.19
14383;BME280;7275;50.328;8.720;2023-03-14T04:05:18;97565.56;;;15.57;54.08
14383;BME280;7275;50.328;8.720;2023-03-14T04:07:46;97565.81;;;15.54;54.12
14383;BME280;7275;50.328;8.720;2023-03-14T04:10:14;97565.00;;;15.54;54.37
14383;BME280;7275;50.328;8.720;2023-03-14T04:12:43;97557.03;;;15.54;54.24
14383;BME280;7275;50.328;8.720;2023-03-14T04:15:10;97555.19;;;15.54;54.22
14383;BME280;7275;50.328;8.720;2023-03-14T04:17:38;97563.16;;;15.54;54.23
14383;BME280;7275;50.328;8.720;2023-03-14T04:20:07;97556.88;;;15.55;54.31
14383;BME280;7275;50.328;8.720;2023-03-14T04:22:37;97566.69;;;15.55;54.33
14383;BME280;7275;50.328;8.720;2023-03-14T04:25:06;97565.72;;;15.56;54.31
14383;BME280;7275;50.328;8.720;2023-03-14T04:27:34;97572.69;;;15.57;54.25
14383;BME280;7275;50.328;8.720;2023-03-14T04:30:03;97570.88;;;15.57;54.22
14383;BME280;7275;50.328;8.720;2023-03-14T04:32:30;97567.22;;;15.58;54.23
14383;BME280;7275;50.328;8.720;2023-03-14T04:34:58;97559.13;;;15.60;54.14
14383;BME280;7275;50.328;8.720;2023-03-14T04:37:25;97560.94;;;15.59;54.29
14383;BME280;7275;50.328;8.720;2023-03-14T04:39:53;97553.91;;;15.58;54.11
14383;BME280;7275;50.328;8.720;2023-03-14T04:42:20;97542.28;;;15.59;53.99
14383;BME280;7275;50.328;8.720;2023-03-14T04:44:48;97554.66;;;15.60;54.02
14383;BME280;7275;50.328;8.720;2023-03-14T04:47:17;97554.66;;;15.60;54.10
14383;BME280;7275;50.328;8.720;2023-03-14T04:49:45;97551.13;;;15.60;54.00
14383;BME280;7275;50.328;8.720;2023-03-14T04:52:13;97551.13;;;15.60;54.12
14383;BME280;7275;50.328;8.720;2023-03-14T04:54:40;97549.31;;;15.60;54.08
14383;BME280;7275;50.328;8.720;2023-03-14T04:57:08;97530.78;;;15.59;54.06
14383;BME280;7275;50.328;8.720;2023-03-14T04:59:36;97540.31;;;15.61;54.10
14383;BME280;7275;50.328;8.720;2023-03-14T05:02:03;97532.34;;;15.61;54.04
14383;BME280;7275;50.328;8.720;2023-03-14T05:04:32;97531.50;;;15.61;54.06
14383;BME280;7275;50.328;8.720;2023-03-14T05:07:00;97536.00;;;15.60;53.96
14383;BME280;7275;50.328;8.720;2023-03-14T05:09:28;97533.59;;;15.57;54.05
14383;BME280;7275;50.328;8.720;2023-03-14T05:11:55;97526.47;;;15.58;54.12
14383;BME280;7275;50.328;8.720;2023-03-14T05:14:23;97531.09;;;15.56;54.08
14383;BME280;7275;50.328;8.720;2023-03-14T05:16:50;97537.22;;;15.56;54.13
14383;BME280;7275;50.328;8.720;2023-03-14T05:19:18;97547.06;;;15.56;53.99
14383;BME280;7275;50.328;8.720;2023-03-14T05:21:47;97532.91;;;15.55;54.04
14383;BME280;7275;50.328;8.720;2023-03-14T05:24:14;97543.56;;;15.55;54.06
14383;BME280;7275;50.328;8.720;2023-03-14T05:26:41;97528.53;;;15.54;53.82
14383;BME280;7275;50.328;8.720;2023-03-14T05:29:09;97534.56;;;15.56;53.92
14383;BME280;7275;50.328;8.720;2023-03-14T05:31:36;97523.09;;;15.56;53.95
14383;BME280;7275;50.328;8.720;2023-03-14T05:34:04;97516.09;;;15.55;53.84
14383;BME280;7275;50.328;8.720;2023-03-14T05:36:31;97526.72;;;15.55;54.04
14383;BME280;7275;50.328;8.720;2023-03-14T05:39:01;97516.94;;;15.55;53.99
14383;BME280;7275;50.328;8.720;2023-03-14T05:41:28;97502.75;;;15.55;53.86
14383;BME280;7275;50.328;8.720;2023-03-14T05:43:56;97500.41;;;15.52;53.88
14383;BME280;7275;50.328;8.720;2023-03-14T05:46:23;97494.22;;;15.51;53.91
14383;BME280;7275;50.328;8.720;2023-03-14T05:48:51;97496.34;;;15.48;53.77
14383;BME280;7275;50.328;8.720;2023-03-14T05:51:18;97486.81;;;15.45;53.89
14383;BME280;7275;50.328;8.720;2023-03-14T05:53:46;97479.06;;;15.42;53.99
14383;BME280;7275;50.328;8.720;2023-03-14T05:56:15;97466.06;;;15.39;53.90
14383;BME280;7275;50.328;8.720;2023-03-14T05:58:42;97476.97;;;15.36;53.84
14383;BME280;7275;50.328;8.720;2023-03-14T06:01:10;97474.31;;;15.36;54.00
14383;BME280;7275;50.328;8.720;2023-03-14T06:03:37;97462.69;;;15.37;53.90
14383;BME280;7275;50.328;8.720;2023-03-14T06:06:06;97468.72;;;15.39;53.97
14383;BME280;7275;50.328;8.720;2023-03-14T06:08:33;97461.53;;;15.40;53.88
14383;BME280;7275;50.328;8.720;2023-03-14T06:11:03;97461.53;;;15.40;53.98
14383;BME280;7275;50.328;8.720;2023-03-14T06:13:32;97452.59;;;15.41;53.69
14383;BME280;7275;50.328;8.720;2023-03-14T06:15:59;97459.59;;;15.42;53.69
14383;BME280;7275;50.328;8.720;2023-03-14T06:18:27;97470.22;;;15.42;53.71
14383;BME280;7275;50.328;8.720;2023-03-14T06:20:55;97453.56;;;15.40;53.95
14383;BME280;7275;50.328;8.720;2023-03-14T06:23:23;97467.72;;;15.40;53.82
14383;BME280;7275;50.328;8.720;2023-03-14T06:25:51;97456.91;;;15.42;53.83
14383;BME280;7275;50.328;8.720;2023-03-14T06:28:19;97466.75;;;15.41;53.67
14383;BME280;7275;50.328;8.720;2023-03-14T06:30:48;97470.97;;;15.44;54.00
14383;BME280;7275;50.328;8.720;2023-03-14T06:33:15;97462.00;;;15.45;54.09
14383;BME280;7275;50.328;8.720;2023-03-14T06:35:43;97470.84;;;15.45;54.08
14383;BME280;7275;50.328;8.720;2023-03-14T06:38:11;97486.13;;;15.43;53.89
14383;BME280;7275;50.328;8.720;2023-03-14T06:40:38;97478.94;;;15.44;54.07
14383;BME280;7275;50.328;8.720;2023-03-14T06:43:06;97485.97;;;15.45;53.92
14383;BME280;7275;50.328;8.720;2023-03-14T06:45:33;97476.41;;;15.42;54.10
14383;BME280;7275;50.328;8.720;2023-03-14T06:48:02;97477.50;;;15.40;54.03
14383;BME280;7275;50.328;8.720;2023-03-14T06:50:30;97481.88;;;15.41;53.95
14383;BME280;7275;50.328;8.720;2023-03-14T06:52:58;97492.53;;;15.41;53.90
14383;BME280;7275;50.328;8.720;2023-03-14T06:55:25;97483.53;;;15.42;53.79
14383;BME280;7275;50.328;8.720;2023-03-14T06:57:53;97480.63;;;15.45;53.69
14383;BME280;7275;50.328;8.720;2023-03-14T07:00:21;97480.38;;;15.48;53.71
14383;BME280;7275;50.328;8.720;2023-03-14T07:02:48;97490.88;;;15.49;53.56
14383;BME280;7275;50.328;8.720;2023-03-14T07:05:17;97505.72;;;15.52;53.46
14383;BME280;7275;50.328;8.720;2023-03-14T07:07:45;97501.09;;;15.54;53.49
14383;BME280;7275;50.328;8.720;2023-03-14T07:10:12;97497.59;;;15.53;53.50
14383;BME280;7275;50.328;8.720;2023-03-14T07:12:40;97503.75;;;15.54;53.44
14383;BME280;7275;50.328;8.720;2023-03-14T07:15:08;97494.78;;;15.55;53.61
14383;BME280;7275;50.328;8.720;2023-03-14T07:17:44;97496.47;;;15.56;53.57
14383;BME280;7275;50.328;8.720;2023-03-14T07:20:14;97491.00;;;15.57;53.53
14383;BME280;7275;50.328;8.720;2023-03-14T07:22:43;97492.66;;;15.58;53.49
14383;BME280;7275;50.328;8.720;2023-03-14T07:25:10;97480.06;;;15.60;53.53
14383;BME280;7275;50.328;8.720;2023-03-14T07:27:38;97475.28;;;15.64;53.53
14383;BME280;7275;50.328;8.720;2023-03-14T07:30:06;97482.00;;;15.68;53.39
14383;BME280;7275;50.328;8.720;2023-03-14T07:32:34;97476.38;;;15.71;53.42
14383;BME280;7275;50.328;8.720;2023-03-14T07:35:01;97473.28;;;15.75;53.48
14383;BME280;7275;50.328;8.720;2023-03-14T07:37:29;97480.00;;;15.79;53.47
14383;BME280;7275;50.328;8.720;2023-03-14T07:39:58;97469.94;;;15.83;53.20
14383;BME280;7275;50.328;8.720;2023-03-14T07:42:25;97479.31;;;15.87;53.10
14383;BME280;7275;50.328;8.720;2023-03-14T07:44:53;97466.81;;;15.87;53.18
14383;BME280;7275;50.328;8.720;2023-03-14T07:47:20;97479.00;;;15.90;53.12
14383;BME280;7275;50.328;8.720;2023-03-14T07:49:48;97488.53;;;15.92;53.11
14383;BME280;7275;50.328;8.720;2023-03-14T07:52:15;97474.63;;;15.98;53.17
14383;BME280;7275;50.328;8.720;2023-03-14T07:54:43;97481.63;;;16.09;53.34
14383;BME280;7275;50.328;8.720;2023-03-14T07:57:11;97477.41;;;16.16;53.20
14383;BME280;7275;50.328;8.720;2023-03-14T07:59:39;97471.84;;;16.27;53.22
14383;BME280;7275;50.328;8.720;2023-03-14T08:02:09;97484.31;;;16.36;53.30
14383;BME280;7275;50.328;8.720;2023-03-14T08:04:38;97467.72;;;16.42;52.94
14383;BME280;7275;50.328;8.720;2023-03-14T08:07:07;97480.63;;;16.47;52.95
14383;BME280;7275;50.328;8.720;2023-03-14T08:09:34;97482.31;;;16.48;52.66
14383;BME280;7275;50.328;8.720;2023-03-14T08:12:02;97486.09;;;16.45;52.72
14383;BME280;7275;50.328;8.720;2023-03-14T08:14:31;97482.88;;;16.42;52.70
14383;BME280;7275;50.328;8.720;2023-03-14T08:16:58;97492.16;;;16.38;52.60
14383;BME280;7275;50.328;8.720;2023-03-14T08:19:26;97488.41;;;16.31;52.79
14383;BME280;7275;50.328;8.720;2023-03-14T08:21:54;97484.38;;;16.27;52.90
14383;BME280;7275;50.328;8.720;2023-03-14T08:24:21;97488.31;;;16.23;52.90
14383;BME280;7275;50.328;8.720;2023-03-14T08:26:49;97482.28;;;16.21;53.22
14383;BME280;7275;50.328;8.720;2023-03-14T08:29:16;97483.97;;;16.22;53.11
14383;BME280;7275;50.328;8.720;2023-03-14T08:31:45;97489.13;;;16.23;53.12
14383;BME280;7275;50.328;8.720;2023-03-14T08:34:15;97489.28;;;16.22;53.34
14383;BME280;7275;50.328;8.720;2023-03-14T08:36:43;97512.44;;;16.21;53.30
14383;BME280;7275;50.328;8.720;2023-03-14T08:39:10;97490.28;;;16.21;53.34
14383;BME280;7275;50.328;8.720;2023-03-14T08:41:38;97492.09;;;16.20;53.55
14383;BME280;7275;50.328;8.720;2023-03-14T08:44:07;97504.31;;;16.23;53.42
14383;BME280;7275;50.328;8.720;2023-03-14T08:46:35;97506.50;;;16.27;53.27
14383;BME280;7275;50.328;8.720;2023-03-14T08:49:04;97514.38;;;16.29;53.48
14383;BME280;7275;50.328;8.720;2023-03-14T08:51:32;97509.06;;;16.29;53.26
14383;BME280;7275;50.328;8.720;2023-03-14T08:53:59;97511.03;;;16.27;53.22
14383;BME280;7275;50.328;8.720;2023-03-14T08:56:27;97509.34;;;16.26;53.11
14383;BME280;7275;50.328;8.720;2023-03-14T08:58:54;97518.34;;;16.25;53.28
14383;BME280;7275;50.328;8.720;2023-03-14T09:01:22;97514.50;;;16.27;53.10
14383;BME280;7275;50.328;8.720;2023-03-14T09:03:51;97510.88;;;16.28;53.16
14383;BME280;7275;50.328;8.720;2023-03-14T09:06:20;97506.22;;;16.30;53.25
14383;BME280;7275;50.328;8.720;2023-03-14T09:08:48;97507.03;;;16.40;53.36
14383;BME280;7275;50.328;8.720;2023-03-14T09:11:15;97500.41;;;16.54;53.26
14383;BME280;7275;50.328;8.720;2023-03-14T09:13:44;97498.63;;;16.72;53.64
14383;BME280;7275;50.328;8.720;2023-03-14T09:16:11;97506.00;;;17.05;53.44
14383;BME280;7275;50.328;8.720;2023-03-14T09:18:39;97505.66;;;17.53;53.32
14383;BME280;7275;50.328;8.720;2023-03-14T09:21:07;97503.72;;;17.81;52.86
14383;BME280;7275;50.328;8.720;2023-03-14T09:23:36;97514.28;;;17.90;52.22
14383;BME280;7275;50.328;8.720;2023-03-14T09:26:03;97512.41;;;17.83;52.03
14383;BME280;7275;50.328;8.720;2023-03-14T09:28:31;97521.69;;;17.71;51.99
14383;BME280;7275;50.328;8.720;2023-03-14T09:31:05;97515.59;;;17.61;52.19
14383;BME280;7275;50.328;8.720;2023-03-14T09:33:34;97519.00;;;17.53;52.21
14383;BME280;7275;50.328;8.720;2023-03-14T09:36:02;97542.38;;;17.51;52.27
14383;BME280;7275;50.328;8.720;2023-03-14T09:38:30;97516.91;;;17.47;52.39
14383;BME280;7275;50.328;8.720;2023-03-14T09:41:01;97535.09;;;17.43;52.40
14383;BME280;7275;50.328;8.720;2023-03-14T09:43:31;97528.66;;;17.36;52.52
14383;BME280;7275;50.328;8.720;2023-03-14T09:46:02;97526.16;;;17.35;52.49
14383;BME280;7275;50.328;8.720;2023-03-14T09:48:32;97525.16;;;17.36;52.68
14383;BME280;7275;50.328;8.720;2023-03-14T09:51:05;97528.84;;;17.35;52.78
14383;BME280;7275;50.328;8.720;2023-03-14T09:53:37;97528.16;;;17.33;52.88
14383;BME280;7275;50.328;8.720;2023-03-14T09:56:11;97521.50;;;17.37;52.89
14383;BME280;7275;50.328;8.720;2023-03-14T09:58:41;97527.44;;;17.48;53.17
14383;BME280;7275;50.328;8.720;2023-03-14T10:01:13;97523.91;;;17.58;53.10
14383;BME280;7275;50.328;8.720;2023-03-14T10:03:44;97521.06;;;17.59;52.86
14383;BME280;7275;50.328;8.720;2023-03-14T10:06:13;97530.91;;;17.58;52.71
14383;BME280;7275;50.328;8.720;2023-03-14T10:08:41;97525.34;;;17.52;52.28
14383;BME280;7275;50.328;8.720;2023-03-14T10:11:14;97526.63;;;17.48;52.40
14383;BME280;7275;50.328;8.720;2023-03-14T10:13:52;97529.34;;;17.38;52.40
14383;BME280;7275;50.328;8.720;2023-03-14T10:16:30;97533.41;;;17.25;52.33
14383;BME280;7275;50.328;8.720;2023-03-14T10:19:03;97524.94;;;17.12;52.45
14383;BME280;7275;50.328;8.720;2023-03-14T10:21:36;97523.16;;;17.03;52.64
14383;BME280;7275;50.328;8.720;2023-03-14T10:24:10;97521.41;;;16.94;52.80
14383;BME280;7275;50.328;8.720;2023-03-14T10:26:47;97512.47;;;16.85;52.84
14383;BME280;7275;50.328;8.720;2023-03-14T10:29:15;97508.84;;;16.76;52.99
14383;BME280;7275;50.328;8.720;2023-03-14T10:31:51;97514.22;;;16.67;53.55
14383;BME280;7275;50.328;8.720;2023-03-14T10:34:25;97517.66;;;16.59;53.79
14383;BME280;7275;50.328;8.720;2023-03-14T10:36:54;97527.09;;;16.54;53.85
14383;BME280;7275;50.328;8.720;2023-03-14T10:39:36;97513.47;;;16.47;54.01
14383;BME280;7275;50.328;8.720;2023-03-14T10:42:15;97508.56;;;16.43;54.36
14383;BME280;7275;50.328;8.720;2023-03-14T10:44:46;97508.72;;;16.41;54.47
14383;BME280;7275;50.328;8.720;2023-03-14T10:47:19;97516.72;;;16.41;54.50
14383;BME280;7275;50.328;8.720;2023-03-14T10:49:47;97521.50;;;16.38;54.60
14383;BME280;7275;50.328;8.720;2023-03-14T10:52:20;97512.09;;;16.34;54.62
14383;BME280;7275;50.328;8.720;2023-03-14T10:55:03;97516.34;;;16.27;54.61
14383;BME280;7275;50.328;8.720;2023-03-14T10:57:40;97522.97;;;16.23;54.95
14383;BME280;7275;50.328;8.720;2023-03-14T11:00:14;97510.63;;;16.22;55.31
14383;BME280;7275;50.328;8.720;2023-03-14T11:03:04;97521.28;;;16.22;55.33
14383;BME280;7275;50.328;8.720;2023-03-14T11:05:41;97510.34;;;16.25;55.42
14383;BME280;7275;50.328;8.720;2023-03-14T11:08:16;97509.88;;;16.29;55.74
14383;BME280;7275;50.328;8.720;2023-03-14T11:10:48;97521.94;;;16.33;55.49
14383;BME280;7275;50.328;8.720;2023-03-14T11:13:23;97510.44;;;16.33;55.60
14383;BME280;7275;50.328;8.720;2023-03-14T11:16:04;97511.97;;;16.35;55.75
14383;BME280;7275;50.328;8.720;2023-03-14T11:19:12;97515.34;;;16.37;55.74
14383;BME280;7275;50.328;8.720;2023-03-14T11:21:51;97525.25;;;16.45;55.65
14383;BME280;7275;50.328;8.720;2023-03-14T11:24:35;97505.59;;;16.46;55.55
14383;BME280;7275;50.328;8.720;2023-03-14T11:27:13;97520.63;;;16.47;55.34
14383;BME280;7275;50.328;8.720;2023-03-14T11:29:54;97510.66;;;16.49;55.59
14383;BME280;7275;50.328;8.720;2023-03-14T11:32:36;97508.97;;;16.48;55.32
14383;BME280;7275;50.328;8.720;2023-03-14T11:35:16;97510.66;;;16.49;55.48
14383;BME280;7275;50.328;8.720;2023-03-14T11:37:46;97524.41;;;16.44;55.51
14383;BME280;7275;50.328;8.720;2023-03-14T11:42:49;97514.66;;;16.35;55.37
14383;BME280;7275;50.328;8.720;2023-03-14T11:45:26;97519.41;;;16.32;55.51
14383;BME280;7275;50.328;8.720;2023-03-14T11:48:10;97508.22;;;16.28;55.82
14383;BME280;7275;50.328;8.720;2023-03-14T11:50:42;97509.19;;;16.27;55.81
14383;BME280;7275;50.328;8.720;2023-03-14T11:53:14;97499.50;;;16.26;55.88
14383;BME280;7275;50.328;8.720;2023-03-14T11:55:44;97511.72;;;16.29;56.07
14383;BME280;7275;50.328;8.720;2023-03-14T11:58:16;97528.41;;;16.31;56.06
14383;BME280;7275;50.328;8.720;2023-03-14T12:00:49;97552.53;;;16.29;55.83
14383;BME280;7275;50.328;8.720;2023-03-14T12:03:24;97642.78;;;16.24;56.12
14383;BME280;7275;50.328;8.720;2023-03-14T12:06:02;97631.28;;;16.14;55.35
14383;BME280;7275;50.328;8.720;2023-03-14T12:08:39;97641.84;;;16.06;55.22
14383;BME280;7275;50.328;8.720;2023-03-14T12:11:13;97645.31;;;15.97;55.22
14383;BME280;7275;50.328;8.720;2023-03-14T12:13:46;97656.69;;;15.89;55.00
14383;BME280;7275;50.328;8.720;2023-03-14T12:16:32;97675.06;;;15.83;55.10
14383;BME280;7275;50.328;8.720;2023-03-14T12:19:14;97655.53;;;15.73;54.90
14383;BME280;7275;50.328;8.720;2023-03-14T12:21:53;97664.78;;;15.69;54.56
14383;BME280;7275;50.328;8.720;2023-03-14T12:24:24;97668.41;;;15.58;53.99
14383;BME280;7275;50.328;8.720;2023-03-14T12:26:59;97649.63;;;15.50;53.93
14383;BME280;7275;50.328;8.720;2023-03-14T12:29:27;97655.69;;;15.62;54.60
14383;BME280;7275;50.328;8.720;2023-03-14T12:32:22;97649.81;;;15.77;53.86
14383;BME280;7275;50.328;8.720;2023-03-14T12:34:51;97656.69;;;15.80;53.34
14383;BME280;7275;50.328;8.720;2023-03-14T12:37:31;97632.31;;;15.75;52.86
14383;BME280;7275;50.328;8.720;2023-03-14T12:40:11;97637.63;;;15.75;52.96
14383;BME280;7275;50.328;8.720;2023-03-14T12:42:45;97641.13;;;15.85;53.16
14383;BME280;7275;50.328;8.720;2023-03-14T12:45:23;97630.03;;;15.99;52.67
14383;BME280;7275;50.328;8.720;2023-03-14T12:47:55;97623.16;;;16.06;52.44
14383;BME280;7275;50.328;8.720;2023-03-14T12:50:31;97650.06;;;16.13;52.35
14383;BME280;7275;50.328;8.720;2023-03-14T12:55:57;97656.34;;;16.40;51.99
14383;BME280;7275;50.328;8.720;2023-03-14T12:58:32;97655.41;;;16.88;52.58
14383;BME280;7275;50.328;8.720;2023-03-14T13:01:04;97654.22;;;17.99;52.64
14383;BME280;7275;50.328;8.720;2023-03-14T13:03:42;97679.81;;;19.39;51.45
14383;BME280;7275;50.328;8.720;2023-03-14T13:06:45;97706.88;;;20.52;49.94
14383;BME280;7275;50.328;8.720;2023-03-14T13:09:35;97728.47;;;21.23;48.19
14383;BME280;7275;50.328;8.720;2023-03-14T13:12:08;97753.09;;;21.42;46.72
14383;BME280;7275;50.328;8.720;2023-03-14T13:14:41;97752.88;;;21.60;45.83
14383;BME280;7275;50.328;8.720;2023-03-14T13:17:11;97780.78;;;21.67;45.53
14383;BME280;7275;50.328;8.720;2023-03-14T13:20:05;97781.78;;;21.66;44.92
14383;BME280;7275;50.328;8.720;2023-03-14T13:22:37;97805.34;;;21.56;44.45
14383;BME280;7275;50.328;8.720;2023-03-14T13:25:06;97819.34;;;21.35;44.00
14383;BME280;7275;50.328;8.720;2023-03-14T13:27:35;97828.44;;;21.02;43.28
14383;BME280;7275;50.328;8.720;2023-03-14T13:30:16;97835.56;;;20.61;43.47
14383;BME280;7275;50.328;8.720;2023-03-14T13:32:46;97843.72;;;20.28;43.55
14383;BME280;7275;50.328;8.720;2023-03-14T13:35:19;97866.38;;;20.00;43.72